Terminal Aerodrome Forecast
Issued by NWS

Home | Current Version | Previous Version | Text Only | Print | Product List | Glossary On
Versions: 1 2 3 4 5 6 7 8 9 10 11 12 13 14 15 16 17 18 19 20 21 22 23 24 25 26
000
FTUS43 KDMX 191731
TAFFOD
TAF
KFOD 191731Z 1918/2018 15010KT P6SM SKC
     FM200300 17009KT P6SM SKC WS020/21030KT
     FM201500 18012G22KT P6SM FEW250=

USA.gov is the U.S. government's official web portal to all federal, state and local government web resources and services.